createdAt,value
2019-05-02T00:01:31.951Z,7.40
2019-05-02T00:04:01.472Z,7.40
2019-05-02T00:06:31.527Z,7.40
2019-05-02T00:09:03.946Z,7.30
2019-05-02T00:11:32.831Z,7.30
2019-05-02T00:14:03.297Z,7.30
2019-05-02T00:16:32.795Z,7.20
2019-05-02T00:19:02.264Z,7.20
2019-05-02T00:21:32.886Z,7.10
2019-05-02T00:24:04.236Z,7.10
2019-05-02T00:26:33.850Z,7.10
2019-05-02T00:29:03.565Z,7.10
2019-05-02T00:31:33.244Z,7.10
2019-05-02T00:34:02.950Z,7.20
2019-05-02T00:36:32.579Z,7.20
2019-05-02T00:39:02.293Z,7.10
2019-05-02T00:41:33.167Z,7.10
2019-05-02T00:44:06.058Z,7.10
2019-05-02T00:46:34.895Z,7.00
2019-05-02T00:49:05.852Z,6.90
2019-05-02T00:51:35.344Z,7.00
2019-05-02T00:54:05.084Z,7.00
2019-05-02T00:56:34.562Z,7.00
2019-05-02T00:59:07.642Z,6.90
2019-05-02T01:01:40.148Z,6.80
2019-05-02T01:04:16.999Z,6.80
2019-05-02T01:06:49.247Z,6.80
2019-05-02T01:09:17.700Z,6.60
2019-05-02T01:11:47.149Z,6.50
2019-05-02T01:14:16.663Z,6.60
2019-05-02T01:16:49.470Z,6.60
2019-05-02T01:19:18.025Z,6.60
2019-05-02T01:21:47.520Z,6.60
2019-05-02T01:24:17.173Z,6.60
2019-05-02T01:26:51.077Z,6.50
2019-05-02T01:29:24.789Z,6.60
2019-05-02T01:31:58.079Z,6.60
2019-05-02T01:34:29.313Z,6.60
2019-05-02T01:37:01.455Z,6.70
2019-05-02T01:39:31.040Z,6.60
2019-05-02T01:42:04.223Z,6.60
2019-05-02T01:44:36.471Z,6.50
2019-05-02T01:47:02.972Z,6.50
2019-05-02T01:49:32.489Z,6.50
2019-05-02T01:52:01.974Z,6.40
2019-05-02T01:54:31.538Z,6.40
2019-05-02T01:57:03.912Z,6.30
2019-05-02T01:59:33.831Z,6.30
2019-05-02T02:02:03.597Z,6.30
2019-05-02T02:04:33.079Z,6.30
2019-05-02T02:07:02.813Z,6.30
2019-05-02T02:09:32.576Z,6.20
2019-05-02T02:12:04.911Z,6.20
2019-05-02T02:14:33.343Z,6.10
2019-05-02T02:17:02.914Z,6.10
2019-05-02T02:19:34.646Z,6.10
2019-05-02T02:22:07.113Z,6.10
2019-05-02T02:24:38.516Z,6.10
2019-05-02T02:27:08.099Z,6.10
2019-05-02T02:29:38.981Z,6.00
2019-05-02T02:32:08.857Z,5.90
2019-05-02T02:34:38.388Z,5.90
2019-05-02T02:37:13.027Z,5.80
2019-05-02T02:39:39.200Z,5.80
2019-05-02T02:42:08.990Z,5.80
2019-05-02T02:44:49.481Z,5.80
2019-05-02T02:47:20.992Z,5.80
2019-05-02T02:49:55.903Z,5.80
2019-05-02T02:52:21.647Z,5.80
2019-05-02T02:54:51.120Z,5.80
2019-05-02T02:57:26.517Z,5.90
2019-05-02T02:59:51.881Z,5.90
2019-05-02T03:02:21.448Z,5.90
2019-05-02T03:04:50.916Z,5.90
2019-05-02T03:07:25.763Z,5.80
2019-05-02T03:09:51.840Z,5.80
2019-05-02T03:12:21.217Z,5.90
2019-05-02T03:14:52.627Z,6.00
2019-05-02T03:17:26.175Z,6.10
2019-05-02T03:20:00.316Z,6.30
2019-05-02T03:22:25.082Z,6.30
2019-05-02T03:24:54.700Z,6.30
2019-05-02T03:27:29.892Z,6.40
2019-05-02T03:29:55.468Z,6.40
2019-05-02T03:32:32.722Z,6.40
2019-05-02T03:34:56.739Z,6.50
2019-05-02T03:37:26.297Z,6.50
2019-05-02T03:39:58.054Z,6.60
2019-05-02T03:42:27.244Z,6.70
2019-05-02T03:45:04.119Z,6.70
2019-05-02T03:47:28.003Z,6.90
2019-05-02T03:49:59.101Z,7.00
2019-05-02T03:52:28.687Z,6.90
2019-05-02T03:54:58.853Z,7.00
2019-05-02T03:57:33.178Z,7.10
2019-05-02T04:00:00.099Z,7.20
2019-05-02T04:02:29.665Z,7.20
2019-05-02T04:05:00.634Z,7.40
2019-05-02T04:07:39.728Z,7.40
2019-05-02T04:10:03.221Z,7.50
2019-05-02T04:12:33.958Z,7.50
2019-05-02T04:15:04.690Z,7.50
2019-05-02T04:17:37.166Z,7.50
2019-05-02T04:20:10.197Z,7.60
2019-05-02T04:22:42.851Z,7.70
2019-05-02T04:25:10.920Z,7.80
2019-05-02T04:27:41.224Z,7.90
2019-05-02T04:30:14.053Z,8.10
2019-05-02T04:32:43.133Z,8.00
2019-05-02T04:35:12.865Z,8.10
2019-05-02T04:37:43.822Z,8.20
2019-05-02T04:40:13.531Z,8.20
2019-05-02T04:42:43.086Z,8.10
2019-05-02T04:45:25.114Z,8.00
2019-05-02T04:47:54.767Z,8.10
2019-05-02T04:50:18.645Z,8.10
2019-05-02T04:52:52.508Z,8.00
2019-05-02T04:55:26.239Z,8.10
2019-05-02T04:57:51.014Z,8.10
2019-05-02T05:00:28.608Z,8.10
2019-05-02T05:02:58.260Z,8.20
2019-05-02T05:05:31.024Z,8.30
2019-05-02T05:07:59.271Z,8.30
2019-05-02T05:10:40.252Z,8.40
2019-05-02T05:13:00.167Z,8.40
2019-05-02T05:15:40.199Z,8.40
2019-05-02T05:18:04.533Z,8.50
2019-05-02T05:20:32.565Z,8.40
2019-05-02T05:23:02.243Z,8.30
2019-05-02T05:25:37.861Z,8.40
2019-05-02T05:28:09.088Z,8.60
2019-05-02T05:30:45.124Z,8.70
2019-05-02T05:33:10.447Z,8.70
2019-05-02T05:35:43.306Z,8.80
2019-05-02T05:38:11.657Z,9.00
2019-05-02T05:40:41.311Z,9.10
2019-05-02T05:43:15.473Z,9.30
2019-05-02T05:45:53.510Z,9.20
2019-05-02T05:48:13.977Z,9.10
2019-05-02T05:50:43.751Z,9.00
2019-05-02T05:53:17.305Z,8.90
2019-05-02T05:55:47.225Z,8.90
2019-05-02T05:58:18.618Z,8.90
2019-05-02T06:00:53.687Z,9.00
2019-05-02T06:03:18.876Z,8.90
2019-05-02T06:05:48.673Z,8.90
2019-05-02T06:08:19.807Z,8.80
2019-05-02T06:10:49.684Z,8.70
2019-05-02T06:13:19.442Z,8.70
2019-05-02T06:16:01.538Z,8.60
2019-05-02T06:18:20.779Z,8.70
2019-05-02T06:20:50.605Z,8.80
2019-05-02T06:23:20.412Z,8.90
2019-05-02T06:25:49.986Z,8.90
2019-05-02T06:28:19.493Z,9.00
2019-05-02T06:30:49.110Z,9.00
2019-05-02T06:33:18.738Z,9.00
2019-05-02T06:35:51.765Z,9.10
2019-05-02T06:38:21.633Z,9.20
2019-05-02T06:40:50.714Z,9.20
2019-05-02T06:43:20.224Z,9.30
2019-05-02T06:45:49.936Z,9.40
2019-05-02T06:48:19.776Z,9.50
2019-05-02T06:50:49.395Z,9.50
2019-05-02T06:53:19.173Z,9.70
2019-05-02T06:55:48.815Z,9.60
2019-05-02T06:58:18.327Z,9.50
2019-05-02T07:00:57.469Z,9.50
2019-05-02T07:03:19.246Z,9.40
2019-05-02T07:05:49.333Z,9.30
2019-05-02T07:08:19.457Z,9.30
2019-05-02T07:10:49.113Z,9.40
2019-05-02T07:13:18.718Z,9.50
2019-05-02T07:15:55.583Z,9.50
2019-05-02T07:18:32.396Z,9.60
2019-05-02T07:21:01.993Z,9.70
2019-05-02T07:23:31.469Z,9.70
2019-05-02T07:26:01.279Z,9.80
2019-05-02T07:28:31.016Z,9.90
2019-05-02T07:31:01.025Z,10.00
2019-05-02T07:33:32.431Z,9.90
2019-05-02T07:36:02.220Z,9.90
2019-05-02T07:38:31.864Z,9.80
2019-05-02T07:41:01.600Z,9.90
2019-05-02T07:43:31.259Z,10.10
2019-05-02T07:46:00.703Z,10.00
2019-05-02T07:48:30.358Z,10.10
2019-05-02T07:51:00.414Z,10.10
2019-05-02T07:53:30.047Z,10.20
2019-05-02T07:55:59.580Z,10.30
2019-05-02T07:58:29.599Z,10.50
2019-05-02T08:00:59.115Z,10.60
2019-05-02T08:03:29.457Z,10.70
2019-05-02T08:06:00.101Z,10.60
2019-05-02T08:08:31.643Z,10.40
2019-05-02T08:11:02.877Z,10.40
2019-05-02T08:13:32.067Z,10.50
2019-05-02T08:16:01.559Z,10.60
2019-05-02T08:18:31.747Z,10.70
2019-05-02T08:21:01.467Z,10.70
2019-05-02T08:23:31.168Z,10.80
2019-05-02T08:26:00.920Z,10.90
2019-05-02T08:28:32.037Z,11.00
2019-05-02T08:31:01.549Z,11.20
2019-05-02T08:33:34.894Z,11.30
2019-05-02T08:36:02.323Z,11.50
2019-05-02T08:38:31.818Z,11.50
2019-05-02T08:41:01.585Z,11.40
2019-05-02T08:43:31.431Z,11.30
2019-05-02T08:46:01.081Z,11.20
2019-05-02T08:48:31.029Z,11.50
2019-05-02T08:51:00.497Z,11.80
2019-05-02T08:53:30.003Z,11.80
2019-05-02T08:55:59.495Z,11.90
2019-05-02T08:58:29.373Z,11.90
2019-05-02T09:00:59.017Z,11.90
2019-05-02T09:03:28.572Z,12.30
2019-05-02T09:06:05.650Z,12.70
2019-05-02T09:08:29.426Z,12.70
2019-05-02T09:10:58.946Z,12.80
2019-05-02T09:13:29.540Z,12.70
2019-05-02T09:15:59.194Z,12.80
2019-05-02T09:18:35.136Z,13.30
2019-05-02T09:21:02.005Z,13.70
2019-05-02T09:23:33.142Z,13.70
2019-05-02T09:26:02.733Z,13.80
2019-05-02T09:28:32.290Z,13.90
2019-05-02T09:31:05.269Z,13.90
2019-05-02T09:33:36.816Z,14.50
2019-05-02T09:36:04.890Z,15.00
2019-05-02T09:38:34.465Z,15.20
2019-05-02T09:41:16.069Z,15.40
2019-05-02T09:43:38.965Z,15.40
2019-05-02T09:46:12.866Z,15.50
2019-05-02T09:48:39.375Z,16.10
2019-05-02T09:51:12.753Z,15.90
2019-05-02T09:53:40.258Z,15.90
2019-05-02T09:56:09.916Z,15.60
2019-05-02T09:58:39.474Z,15.50
2019-05-02T10:01:13.818Z,15.90
2019-05-02T10:03:43.414Z,16.10
2019-05-02T10:06:17.891Z,15.90
2019-05-02T10:08:46.569Z,15.80
2019-05-02T10:11:16.854Z,15.60
2019-05-02T10:13:47.105Z,15.40
2019-05-02T10:16:17.972Z,15.40
2019-05-02T10:18:48.191Z,15.50
2019-05-02T10:21:17.862Z,16.00
2019-05-02T10:23:53.695Z,16.50
2019-05-02T10:26:24.452Z,17.50
2019-05-02T10:28:53.324Z,18.60
2019-05-02T10:31:27.584Z,18.60
2019-05-02T10:33:54.480Z,17.90
2019-05-02T10:36:24.157Z,17.20
2019-05-02T10:38:59.096Z,16.70
2019-05-02T10:41:25.016Z,16.90
2019-05-02T10:43:57.752Z,17.10
2019-05-02T10:46:37.794Z,16.60
2019-05-02T10:49:12.560Z,16.50
2019-05-02T10:51:49.383Z,16.80
2019-05-02T10:54:13.334Z,17.30
2019-05-02T10:56:42.893Z,17.50
2019-05-02T10:59:12.522Z,17.30
2019-05-02T11:01:57.293Z,17.40
2019-05-02T11:04:29.300Z,17.10
2019-05-02T11:06:59.050Z,17.30
2019-05-02T11:22:56.024Z,16.90
2019-05-02T11:25:25.772Z,16.60
2019-05-02T11:27:57.428Z,16.20
2019-05-02T11:30:26.766Z,16.10
2019-05-02T11:32:56.538Z,16.70
2019-05-02T11:35:26.264Z,16.80
2019-05-02T11:37:55.928Z,17.30
2019-05-02T11:40:25.889Z,17.00
2019-05-02T11:42:57.302Z,16.70
2019-05-02T11:45:26.819Z,16.50
2019-05-02T11:48:01.690Z,16.70
2019-05-02T11:50:33.860Z,16.90
2019-05-02T11:52:59.261Z,17.50
2019-05-02T12:03:42.283Z,17.60
2019-05-02T12:06:18.977Z,18.10
2019-05-02T12:08:45.111Z,17.90
2019-05-02T12:11:17.696Z,17.60
2019-05-02T12:13:47.375Z,17.60
2019-05-02T12:16:17.862Z,17.50
2019-05-02T12:18:47.517Z,17.50
2019-05-02T12:21:17.170Z,17.60
2019-05-02T12:23:46.778Z,17.80
2019-05-02T12:26:16.319Z,17.70
2019-05-02T12:28:46.000Z,18.00
2019-05-02T12:31:32.577Z,18.10
2019-05-02T12:34:03.496Z,17.80
2019-05-02T12:36:33.551Z,17.60
2019-05-02T12:39:04.877Z,17.70
2019-05-02T12:41:34.423Z,17.70
2019-05-02T12:44:04.371Z,17.90
2019-05-02T12:46:34.577Z,17.90
2019-05-02T12:49:04.240Z,18.00
2019-05-02T12:51:33.778Z,17.70
2019-05-02T12:54:03.671Z,17.60
2019-05-02T12:56:33.305Z,17.60
2019-05-02T12:59:02.950Z,17.40
2019-05-02T13:01:33.112Z,17.10
2019-05-02T13:04:05.021Z,17.00
2019-05-02T13:06:37.100Z,17.10
2019-05-02T13:09:09.775Z,17.40
2019-05-02T13:11:44.370Z,17.40
2019-05-02T13:14:18.952Z,17.10
2019-05-02T13:16:44.524Z,17.10
2019-05-02T13:19:14.187Z,16.90
2019-05-02T13:22:02.262Z,16.90
2019-05-02T13:24:34.031Z,17.10
2019-05-02T13:27:04.551Z,17.40
2019-05-02T13:29:34.169Z,17.30
2019-05-02T13:32:08.834Z,17.20
2019-05-02T13:34:57.122Z,17.40
2019-05-02T13:37:28.008Z,17.40
2019-05-02T13:40:05.079Z,17.50
2019-05-02T13:42:34.652Z,17.60
2019-05-02T13:45:12.602Z,17.30
2019-05-02T13:47:42.618Z,17.20
2019-05-02T13:50:13.031Z,17.60
2019-05-02T13:52:45.200Z,17.70
2019-05-02T13:55:15.688Z,17.50
2019-05-02T13:57:46.942Z,17.30
2019-05-02T14:00:19.296Z,17.10
2019-05-02T14:02:51.980Z,16.90
2019-05-02T14:05:22.325Z,16.90
2019-05-02T14:07:57.111Z,16.90
2019-05-02T14:10:26.742Z,17.00
2019-05-02T14:13:00.518Z,17.10
2019-05-02T14:15:32.400Z,17.40
2019-05-02T14:18:02.630Z,17.60
2019-05-02T14:20:33.054Z,17.30
2019-05-02T14:23:02.757Z,17.10
2019-05-02T14:25:32.423Z,17.00
2019-05-02T14:28:02.918Z,16.90
2019-05-02T14:30:39.521Z,16.70
2019-05-02T14:33:06.089Z,16.90
2019-05-02T14:35:43.117Z,17.10
2019-05-02T14:38:14.205Z,16.90
2019-05-02T14:41:02.789Z,16.80
2019-05-02T14:43:53.907Z,16.60
2019-05-02T14:46:29.035Z,16.30
2019-05-02T14:48:57.334Z,16.00
2019-05-02T14:51:27.926Z,15.70
2019-05-02T14:54:03.571Z,15.50
2019-05-02T14:56:37.503Z,15.30
2019-05-02T14:59:09.160Z,15.20
2019-05-02T15:01:42.179Z,15.10
2019-05-02T15:04:12.923Z,15.10
2019-05-02T15:06:47.274Z,15.10
2019-05-02T15:09:16.647Z,15.00
2019-05-02T15:12:03.378Z,14.90
2019-05-02T15:14:35.812Z,14.80
2019-05-02T15:17:08.043Z,14.70
2019-05-02T15:19:37.866Z,14.50
2019-05-02T15:22:07.846Z,14.40
2019-05-02T15:24:38.094Z,14.40
2019-05-02T15:27:13.261Z,14.30
2019-05-02T15:29:39.269Z,14.20
2019-05-02T15:32:16.469Z,13.90
2019-05-02T15:34:56.468Z,13.70
2019-05-02T15:37:27.318Z,13.60
2019-05-02T15:42:28.408Z,13.30
2019-05-02T15:45:01.860Z,13.10
2019-05-02T15:47:29.597Z,13.00
2019-05-02T15:49:59.107Z,12.80
2019-05-02T15:52:30.243Z,12.70
2019-05-02T15:55:02.103Z,12.60
2019-05-02T15:57:38.073Z,12.50
2019-05-02T16:00:05.299Z,12.40
2019-05-02T16:02:34.903Z,12.40
2019-05-02T16:05:07.004Z,12.40
2019-05-02T16:07:38.011Z,12.40
2019-05-02T16:10:13.113Z,12.40
2019-05-02T16:12:44.545Z,12.50
2019-05-02T16:15:21.241Z,12.60
2019-05-02T16:17:46.643Z,12.60
2019-05-02T16:20:18.262Z,12.60
2019-05-02T16:22:49.852Z,12.60
2019-05-02T16:25:24.337Z,12.60
2019-05-02T16:27:52.854Z,12.50
2019-05-02T16:30:24.124Z,12.60
2019-05-02T16:33:02.669Z,12.60
2019-05-02T16:35:34.077Z,12.50
2019-05-02T16:38:03.771Z,12.60
2019-05-02T16:40:34.885Z,12.60
2019-05-02T16:43:04.781Z,12.70
2019-05-02T16:45:34.437Z,12.80
2019-05-02T16:48:04.090Z,12.80
2019-05-02T16:50:36.694Z,12.80
2019-05-02T16:53:05.002Z,12.90
2019-05-02T16:55:34.619Z,12.90
2019-05-02T16:58:06.909Z,13.00
2019-05-02T17:00:36.813Z,13.00
2019-05-02T17:03:07.115Z,13.00
2019-05-02T17:05:39.331Z,13.00
2019-05-02T17:08:18.614Z,13.00
2019-05-02T17:10:53.720Z,12.90
2019-05-02T17:13:27.597Z,12.70
2019-05-02T17:15:54.580Z,12.40
2019-05-02T17:18:24.241Z,12.00
2019-05-02T17:20:56.751Z,11.80
2019-05-02T17:23:25.107Z,11.60
2019-05-02T17:25:54.625Z,11.50
2019-05-02T17:28:24.169Z,11.50
2019-05-02T17:30:53.782Z,11.50
2019-05-02T17:33:23.584Z,11.40
2019-05-02T17:35:54.374Z,11.40
2019-05-02T17:38:29.023Z,11.30
2019-05-02T17:40:59.165Z,11.30
2019-05-02T17:43:26.813Z,11.20
2019-05-02T17:45:56.571Z,11.10
2019-05-02T17:48:26.256Z,11.20
2019-05-02T17:50:59.353Z,11.20
2019-05-02T17:53:33.803Z,11.30
2019-05-02T17:56:01.845Z,11.30
2019-05-02T17:58:31.885Z,11.20
2019-05-02T18:01:03.322Z,11.30
2019-05-02T18:03:35.365Z,11.20
2019-05-02T18:06:07.641Z,11.10
2019-05-02T18:08:36.048Z,11.00
2019-05-02T18:11:05.886Z,11.00
2019-05-02T18:13:35.596Z,11.10
2019-05-02T18:16:07.688Z,11.10
2019-05-02T18:18:37.483Z,11.10
2019-05-02T18:21:08.452Z,11.10
2019-05-02T18:23:39.528Z,11.10
2019-05-02T18:26:09.184Z,11.00
2019-05-02T18:28:46.943Z,10.90
2019-05-02T18:31:12.062Z,10.80
2019-05-02T18:33:42.513Z,10.70
2019-05-02T18:36:12.292Z,10.70
2019-05-02T18:38:41.907Z,10.60
2019-05-02T18:41:12.054Z,10.60
2019-05-02T18:43:45.211Z,10.60
2019-05-02T18:46:16.726Z,10.60
2019-05-02T18:48:49.119Z,10.60
2019-05-02T18:51:19.026Z,10.60
2019-05-02T18:53:48.863Z,10.60
2019-05-02T18:56:18.493Z,10.60
2019-05-02T18:58:48.090Z,10.60
2019-05-02T19:01:20.770Z,10.60
2019-05-02T19:03:52.615Z,10.60
2019-05-02T19:06:22.025Z,10.60
2019-05-02T19:08:55.105Z,10.60
2019-05-02T19:11:26.761Z,10.50
2019-05-02T19:13:57.431Z,10.50
2019-05-02T19:16:28.670Z,10.50
2019-05-02T19:18:58.608Z,10.50
2019-05-02T19:21:32.089Z,10.50
2019-05-02T19:27:09.392Z,10.60
2019-05-02T19:29:38.955Z,10.60
2019-05-02T19:32:12.026Z,10.60
2019-05-02T19:34:41.719Z,10.50
2019-05-02T19:37:12.140Z,10.40
2019-05-02T19:39:46.937Z,10.40
2019-05-02T19:42:16.999Z,10.30
2019-05-02T19:44:45.345Z,10.30
2019-05-02T19:47:17.474Z,10.30
2019-05-02T19:49:47.398Z,10.20
2019-05-02T19:52:17.736Z,10.20
2019-05-02T19:54:47.520Z,10.20
2019-05-02T19:57:22.034Z,10.10
2019-05-02T19:59:48.602Z,10.10
2019-05-02T20:02:18.252Z,10.20
2019-05-02T20:04:47.915Z,10.20
2019-05-02T20:07:17.516Z,10.10
2019-05-02T20:09:47.491Z,10.00
2019-05-02T20:12:17.139Z,10.00
2019-05-02T20:14:47.614Z,9.90
2019-05-02T20:17:20.225Z,9.90
2019-05-02T20:19:50.454Z,9.90
2019-05-02T20:22:22.271Z,9.90
2019-05-02T20:24:56.873Z,9.90
2019-05-02T20:27:24.194Z,10.00
2019-05-02T20:29:53.921Z,9.90
2019-05-02T20:32:23.686Z,10.00
2019-05-02T20:34:53.285Z,10.00
2019-05-02T20:37:22.995Z,10.00
2019-05-02T20:39:52.739Z,10.00
2019-05-02T21:08:13.606Z,10.00
2019-05-02T21:10:44.927Z,9.80
2019-05-02T21:13:14.733Z,9.70
2019-05-02T21:15:45.011Z,9.60
2019-05-02T21:18:14.919Z,9.60
2019-05-02T21:21:08.153Z,9.50
2019-05-02T21:23:52.794Z,9.40
2019-05-02T21:32:16.757Z,9.10
2019-05-02T21:47:10.787Z,8.60
2019-05-02T21:49:57.170Z,8.40
2019-05-02T21:52:44.133Z,8.30
2019-05-02T21:55:18.534Z,8.10
2019-05-02T21:57:48.255Z,8.10
2019-05-02T22:00:38.601Z,8.00
2019-05-02T22:03:09.131Z,8.00
2019-05-02T22:05:39.218Z,8.00
2019-05-02T22:08:08.729Z,8.00
2019-05-02T22:10:38.314Z,7.90
2019-05-02T22:13:07.872Z,7.90
2019-05-02T22:15:37.435Z,8.00
2019-05-02T22:50:16.125Z,8.20
2019-05-02T22:52:45.640Z,8.20
2019-05-02T22:55:15.196Z,8.30
2019-05-02T22:57:45.430Z,8.30
2019-05-02T23:00:15.536Z,8.20
2019-05-02T23:02:45.040Z,8.20
2019-05-02T23:05:15.075Z,8.20
2019-05-02T23:07:44.582Z,8.20
2019-05-02T23:10:14.657Z,8.20
2019-05-02T23:12:44.177Z,8.30
2019-05-02T23:15:13.999Z,8.30
2019-05-02T23:17:43.636Z,8.20
2019-05-02T23:20:13.530Z,8.20
2019-05-02T23:22:43.151Z,8.10
2019-05-02T23:25:22.640Z,8.20
2019-05-02T23:27:53.957Z,8.20
2019-05-02T23:30:24.877Z,8.20
2019-05-02T23:32:54.412Z,8.30
2019-05-02T23:35:24.132Z,8.30
2019-05-02T23:37:54.037Z,8.30
2019-05-02T23:40:24.031Z,8.40
2019-05-02T23:42:53.493Z,8.40
2019-05-02T23:45:23.125Z,8.40
2019-05-02T23:47:52.905Z,8.40
2019-05-02T23:50:23.053Z,8.40
2019-05-02T23:52:52.949Z,8.50
2019-05-02T23:55:22.927Z,8.50
2019-05-02T23:57:52.585Z,8.60
